createdAt,value
2018-08-11T00:00:59.505Z,19.95
2018-08-11T00:01:59.519Z,19.84
2018-08-11T00:02:59.502Z,19.86
2018-08-11T00:03:59.504Z,19.80
2018-08-11T00:04:59.520Z,19.78
2018-08-11T00:05:59.513Z,19.81
2018-08-11T00:06:59.514Z,19.77
2018-08-11T00:07:59.526Z,19.77
2018-08-11T00:08:59.528Z,19.78
2018-08-11T00:09:59.531Z,19.78
2018-08-11T00:10:59.527Z,19.76
2018-08-11T00:11:59.533Z,19.83
2018-08-11T00:12:59.541Z,19.88
2018-08-11T00:13:59.543Z,19.78
2018-08-11T00:14:59.544Z,19.86
2018-08-11T00:15:59.539Z,19.88
2018-08-11T00:16:59.553Z,19.92
2018-08-11T00:17:59.544Z,19.94
2018-08-11T00:18:59.553Z,19.84
2018-08-11T00:19:59.569Z,19.83
2018-08-11T00:20:59.555Z,19.86
2018-08-11T00:21:59.559Z,19.91
2018-08-11T00:23:00.198Z,19.92
2018-08-11T00:23:59.560Z,19.84
2018-08-11T00:24:59.562Z,19.91
2018-08-11T00:25:59.575Z,19.84
2018-08-11T00:26:59.583Z,19.87
2018-08-11T00:27:59.620Z,19.86
2018-08-11T00:28:59.580Z,19.83
2018-08-11T00:29:59.589Z,19.80
2018-08-11T00:30:59.577Z,19.86
2018-08-11T00:31:59.580Z,19.94
2018-08-11T00:33:00.203Z,19.88
2018-08-11T00:33:59.590Z,19.87
2018-08-11T00:34:59.593Z,19.94
2018-08-11T00:35:59.602Z,19.88
2018-08-11T00:36:59.600Z,19.91
2018-08-11T00:37:59.603Z,19.84
2018-08-11T00:38:59.610Z,19.94
2018-08-11T00:39:59.619Z,19.88
2018-08-11T00:40:59.635Z,19.96
2018-08-11T00:41:59.620Z,20.01
2018-08-11T00:42:59.612Z,20.03
2018-08-11T00:43:59.631Z,20.02
2018-08-11T00:44:59.621Z,20.01
2018-08-11T00:46:00.215Z,20.11
2018-08-11T00:46:59.614Z,20.13
2018-08-11T00:47:59.627Z,20.13
2018-08-11T00:48:59.695Z,20.13
2018-08-11T00:49:59.638Z,20.03
2018-08-11T00:50:59.648Z,20.05
2018-08-11T00:51:59.649Z,20.03
2018-08-11T00:52:59.648Z,19.95
2018-08-11T00:53:59.654Z,19.92
2018-08-11T00:54:59.651Z,19.88
2018-08-11T00:55:59.655Z,19.78
2018-08-11T00:56:59.653Z,19.68
2018-08-11T00:57:59.659Z,19.58
2018-08-11T00:58:59.730Z,19.55
2018-08-11T00:59:59.669Z,19.50
2018-08-11T01:00:59.673Z,19.51
2018-08-11T01:01:59.670Z,19.51
2018-08-11T01:02:59.673Z,19.47
2018-08-11T01:03:59.673Z,19.41
2018-08-11T01:04:59.681Z,19.41
2018-08-11T01:05:59.684Z,19.29
2018-08-11T01:06:59.679Z,19.22
2018-08-11T01:07:59.691Z,19.25
2018-08-11T01:08:59.697Z,19.07
2018-08-11T01:09:59.686Z,18.92
2018-08-11T01:10:59.753Z,18.98
2018-08-11T01:11:59.690Z,18.88
2018-08-11T01:12:59.701Z,18.87
2018-08-11T01:14:01.296Z,18.81
2018-08-11T01:14:59.716Z,18.75
2018-08-11T01:15:59.721Z,18.69
2018-08-11T01:16:59.710Z,18.70
2018-08-11T01:17:59.717Z,18.73
2018-08-11T01:18:59.719Z,18.72
2018-08-11T01:19:59.713Z,18.65
2018-08-11T01:20:59.723Z,18.69
2018-08-11T01:21:59.724Z,18.73
2018-08-11T01:22:59.724Z,18.55
2018-08-11T01:23:59.719Z,18.52
2018-08-11T01:24:59.732Z,18.45
2018-08-11T01:25:59.726Z,18.45
2018-08-11T01:26:59.728Z,18.39
2018-08-11T01:27:59.743Z,18.30
2018-08-11T01:28:59.742Z,18.15
2018-08-11T01:29:59.776Z,18.02
2018-08-11T01:30:59.749Z,17.96
2018-08-11T01:31:59.767Z,17.70
2018-08-11T01:32:59.753Z,17.56
2018-08-11T01:33:59.749Z,17.48
2018-08-11T01:34:59.761Z,17.44
2018-08-11T01:35:59.764Z,17.33
2018-08-11T01:36:59.763Z,17.19
2018-08-11T01:37:59.776Z,17.12
2018-08-11T01:38:59.782Z,17.07
2018-08-11T01:40:00.744Z,17.04
2018-08-11T01:40:59.776Z,17.21
2018-08-11T01:41:59.771Z,17.16
2018-08-11T01:42:59.780Z,17.07
2018-08-11T01:43:59.808Z,17.14
2018-08-11T01:44:59.789Z,17.21
2018-08-11T01:45:59.785Z,16.96
2018-08-11T01:46:59.781Z,16.70
2018-08-11T01:47:59.792Z,16.67
2018-08-11T01:49:01.331Z,16.63
2018-08-11T01:49:59.793Z,16.60
2018-08-11T01:50:59.801Z,16.43
2018-08-11T01:51:59.800Z,16.38
2018-08-11T01:52:59.831Z,16.35
2018-08-11T01:53:59.816Z,16.42
2018-08-11T01:54:59.823Z,16.41
2018-08-11T01:55:59.816Z,16.46
2018-08-11T01:56:59.807Z,16.61
2018-08-11T01:57:59.878Z,16.39
2018-08-11T01:58:59.809Z,16.30
2018-08-11T01:59:59.829Z,16.35
2018-08-11T02:00:59.821Z,16.21
2018-08-11T02:01:59.827Z,16.09
2018-08-11T02:02:59.820Z,16.08
2018-08-11T02:03:59.829Z,16.21
2018-08-11T02:04:59.843Z,16.05
2018-08-11T02:05:59.847Z,16.07
2018-08-11T02:06:59.831Z,16.12
2018-08-11T02:07:59.853Z,16.24
2018-08-11T02:08:59.848Z,16.11
2018-08-11T02:09:59.850Z,16.21
2018-08-11T02:10:59.911Z,16.09
2018-08-11T02:11:59.851Z,16.02
2018-08-11T02:12:59.853Z,16.07
2018-08-11T02:14:02.818Z,16.00
2018-08-11T02:14:59.864Z,15.86
2018-08-11T02:15:59.860Z,15.96
2018-08-11T02:16:59.867Z,16.02
2018-08-11T02:17:59.892Z,15.87
2018-08-11T02:18:59.885Z,15.87
2018-08-11T02:19:59.876Z,15.86
2018-08-11T02:20:59.874Z,15.84
2018-08-11T02:21:59.874Z,15.83
2018-08-11T02:22:59.887Z,15.75
2018-08-11T02:23:59.924Z,15.72
2018-08-11T02:24:59.884Z,15.71
2018-08-11T02:25:59.877Z,15.57
2018-08-11T02:26:59.885Z,15.64
2018-08-11T02:27:59.900Z,15.46
2018-08-11T02:28:59.922Z,15.60
2018-08-11T02:29:59.897Z,15.62
2018-08-11T02:30:59.939Z,15.74
2018-08-11T02:31:59.908Z,15.84
2018-08-11T02:32:59.912Z,15.67
2018-08-11T02:33:59.907Z,15.71
2018-08-11T02:34:59.918Z,15.74
2018-08-11T02:35:59.916Z,15.72
2018-08-11T02:36:59.973Z,15.71
2018-08-11T02:37:59.923Z,15.59
2018-08-11T02:38:59.920Z,15.64
2018-08-11T02:39:59.928Z,15.64
2018-08-11T02:40:59.925Z,15.67
2018-08-11T02:41:59.929Z,15.60
2018-08-11T02:42:59.929Z,15.56
2018-08-11T02:43:59.926Z,15.46
2018-08-11T02:44:59.939Z,15.34
2018-08-11T02:45:59.939Z,15.32
2018-08-11T02:46:59.931Z,15.21
2018-08-11T02:47:59.939Z,15.20
2018-08-11T02:48:59.932Z,15.11
2018-08-11T02:50:01.831Z,15.16
2018-08-11T02:51:00.015Z,15.03
2018-08-11T02:51:59.945Z,15.19
2018-08-11T02:52:59.964Z,15.09
2018-08-11T02:53:59.944Z,15.13
2018-08-11T02:54:59.953Z,15.20
2018-08-11T02:55:59.971Z,15.17
2018-08-11T02:56:59.967Z,15.07
2018-08-11T02:57:59.961Z,15.10
2018-08-11T02:58:59.967Z,15.03
2018-08-11T02:59:59.972Z,15.16
2018-08-11T03:00:59.971Z,15.17
2018-08-11T03:01:59.987Z,15.29
2018-08-11T03:02:59.979Z,15.31
2018-08-11T03:03:59.980Z,15.10
2018-08-11T03:04:59.975Z,15.21
2018-08-11T03:05:59.979Z,15.31
2018-08-11T03:06:59.996Z,15.21
2018-08-11T03:07:59.983Z,15.34
2018-08-11T03:08:59.999Z,15.17
2018-08-11T03:09:59.984Z,15.16
2018-08-11T03:10:59.994Z,15.20
2018-08-11T03:12:00.005Z,15.32
2018-08-11T03:13:00.028Z,15.29
2018-08-11T03:14:00.111Z,15.20
2018-08-11T03:15:00.012Z,15.23
2018-08-11T03:16:00.034Z,15.16
2018-08-11T03:17:00.015Z,15.20
2018-08-11T03:18:00.018Z,15.32
2018-08-11T03:19:00.007Z,15.32
2018-08-11T03:20:00.020Z,15.43
2018-08-11T03:21:00.020Z,15.49
2018-08-11T03:22:00.029Z,15.53
2018-08-11T03:23:00.029Z,15.64
2018-08-11T03:24:00.034Z,15.56
2018-08-11T03:25:00.032Z,15.54
2018-08-11T03:26:00.031Z,15.49
2018-08-11T03:47:03.602Z,15.19
2018-08-11T03:48:01.418Z,15.28
2018-08-11T03:49:01.572Z,15.16
2018-08-11T03:50:21.422Z,15.19
2018-08-11T03:51:01.052Z,15.19
2018-08-11T03:52:00.452Z,15.21
2018-08-11T03:53:00.486Z,15.17
2018-08-11T03:54:00.459Z,15.11
2018-08-11T03:55:00.524Z,15.10
2018-08-11T03:56:00.432Z,15.14
2018-08-11T03:57:00.442Z,15.07
2018-08-11T03:58:00.432Z,14.96
2018-08-11T03:59:00.468Z,14.89
2018-08-11T04:00:00.408Z,15.01
2018-08-11T04:01:00.481Z,14.94
2018-08-11T04:02:00.443Z,15.03
2018-08-11T04:03:01.063Z,14.96
2018-08-11T04:04:00.471Z,14.89
2018-08-11T04:05:00.442Z,14.99
2018-08-11T04:06:00.453Z,14.81
2018-08-11T04:07:00.436Z,14.86
2018-08-11T04:08:00.437Z,14.91
2018-08-11T04:09:00.472Z,14.94
2018-08-11T04:10:00.426Z,14.99
2018-08-11T04:11:00.452Z,14.95
2018-08-11T04:12:00.456Z,14.96
2018-08-11T04:13:00.440Z,14.96
2018-08-11T04:14:00.452Z,14.88
2018-08-11T04:15:00.469Z,14.96
2018-08-11T04:16:00.463Z,14.96
2018-08-11T04:17:00.532Z,14.98
2018-08-11T04:18:00.479Z,14.95
2018-08-11T04:19:00.512Z,14.99
2018-08-11T04:20:00.483Z,15.07
2018-08-11T04:21:00.494Z,14.96
2018-08-11T04:22:00.507Z,15.02
2018-08-11T04:23:00.532Z,15.06
2018-08-11T04:24:00.506Z,14.94
2018-08-11T04:25:00.807Z,14.78
2018-08-11T04:26:01.069Z,14.98
2018-08-11T04:27:00.503Z,14.96
2018-08-11T04:28:00.536Z,14.91
2018-08-11T04:29:00.520Z,14.92
2018-08-11T04:30:00.519Z,14.96
2018-08-11T04:31:00.523Z,15.01
2018-08-11T04:32:00.519Z,15.01
2018-08-11T04:33:00.507Z,15.02
2018-08-11T04:34:00.532Z,14.94
2018-08-11T04:35:00.507Z,14.99
2018-08-11T04:36:00.502Z,14.86
2018-08-11T04:37:00.494Z,14.98
2018-08-11T04:38:00.487Z,14.91
2018-08-11T04:39:00.538Z,14.96
2018-08-11T04:40:00.539Z,14.89
2018-08-11T04:41:00.501Z,14.98
2018-08-11T04:42:00.610Z,14.86
2018-08-11T04:43:00.577Z,14.91
2018-08-11T04:44:00.659Z,14.88
2018-08-11T04:45:00.528Z,14.96
2018-08-11T04:46:00.543Z,15.01
2018-08-11T04:47:00.584Z,15.06
2018-08-11T04:48:00.605Z,15.16
2018-08-11T04:49:00.568Z,15.10
2018-08-11T04:50:00.595Z,15.07
2018-08-11T04:51:00.588Z,15.10
2018-08-11T04:52:00.606Z,15.14
2018-08-11T04:53:00.552Z,15.14
2018-08-11T04:54:00.539Z,15.16
2018-08-11T04:55:00.583Z,15.10
2018-08-11T04:56:00.543Z,15.11
2018-08-11T04:57:00.546Z,15.19
2018-08-11T04:58:00.591Z,15.23
2018-08-11T04:59:00.597Z,15.17
2018-08-11T05:00:00.575Z,15.31
2018-08-11T05:01:00.543Z,15.21
2018-08-11T05:02:00.621Z,15.13
2018-08-11T05:03:00.591Z,15.23
2018-08-11T05:04:00.581Z,15.25
2018-08-11T05:05:00.658Z,15.27
2018-08-11T05:06:00.601Z,15.20
2018-08-11T05:07:00.658Z,15.23
2018-08-11T05:08:00.609Z,15.19
2018-08-11T05:09:00.567Z,15.14
2018-08-11T05:10:00.600Z,15.10
2018-08-11T05:11:00.592Z,15.13
2018-08-11T05:12:00.617Z,15.09
2018-08-11T05:13:00.609Z,15.19
2018-08-11T05:14:00.584Z,15.23
2018-08-11T05:15:00.628Z,15.14
2018-08-11T05:16:00.605Z,15.21
2018-08-11T05:17:00.663Z,15.20
2018-08-11T05:18:00.647Z,15.23
2018-08-11T05:19:00.632Z,15.19
2018-08-11T05:20:01.152Z,15.16
2018-08-11T05:21:00.671Z,15.19
2018-08-11T05:22:00.623Z,15.21
2018-08-11T05:23:00.651Z,15.11
2018-08-11T05:24:00.673Z,15.10
2018-08-11T05:25:00.634Z,15.20
2018-08-11T05:26:00.669Z,15.28
2018-08-11T05:27:00.658Z,15.27
2018-08-11T05:28:00.652Z,15.28
2018-08-11T05:29:00.613Z,15.29
2018-08-11T05:30:00.628Z,15.31
2018-08-11T05:31:00.645Z,15.43
2018-08-11T05:32:00.674Z,15.46
2018-08-11T05:33:00.646Z,15.47
2018-08-11T05:34:00.699Z,15.51
2018-08-11T05:35:00.677Z,15.60
2018-08-11T05:36:00.658Z,15.76
2018-08-11T05:37:00.687Z,15.71
2018-08-11T05:38:00.645Z,15.74
2018-08-11T05:39:00.695Z,15.76
2018-08-11T05:40:00.701Z,15.64
2018-08-11T05:41:00.699Z,15.68
2018-08-11T05:42:00.657Z,15.68
2018-08-11T05:43:00.717Z,15.87
2018-08-11T05:44:00.665Z,15.87
2018-08-11T05:45:00.652Z,15.83
2018-08-11T05:46:00.687Z,17.15
2018-08-11T05:47:00.692Z,16.96
2018-08-11T05:48:00.673Z,16.93
2018-08-11T05:49:00.668Z,16.97
2018-08-11T05:50:00.718Z,16.64
2018-08-11T05:51:00.770Z,16.43
2018-08-11T05:52:00.716Z,16.30
2018-08-11T05:53:00.710Z,16.34
2018-08-11T05:54:00.735Z,16.34
2018-08-11T05:55:00.714Z,16.35
2018-08-11T05:56:00.914Z,16.31
2018-08-11T05:57:00.712Z,16.28
2018-08-11T05:58:00.729Z,16.24
2018-08-11T05:59:00.753Z,16.33
2018-08-11T06:00:00.688Z,16.33
2018-08-11T06:01:00.767Z,16.34
2018-08-11T06:02:00.741Z,16.33
2018-08-11T06:03:00.739Z,16.05
2018-08-11T06:04:00.750Z,16.14
2018-08-11T06:05:00.755Z,16.15
2018-08-11T06:06:00.740Z,16.27
2018-08-11T06:07:00.736Z,16.39
2018-08-11T06:08:00.796Z,16.46
2018-08-11T06:09:00.744Z,16.52
2018-08-11T06:10:00.746Z,16.43
2018-08-11T06:11:00.749Z,16.48
2018-08-11T06:12:00.791Z,16.56
2018-08-11T06:13:00.817Z,16.60
2018-08-11T06:14:01.614Z,16.63
2018-08-11T06:15:00.780Z,16.56
2018-08-11T06:16:00.834Z,16.56
2018-08-11T06:17:00.783Z,16.68
2018-08-11T06:18:00.765Z,16.73
2018-08-11T06:19:00.739Z,17.52
2018-08-11T06:20:00.798Z,18.67
2018-08-11T06:21:00.769Z,19.96
2018-08-11T06:22:00.797Z,20.50
2018-08-11T06:23:00.841Z,20.42
2018-08-11T06:24:00.852Z,19.69
2018-08-11T06:25:00.884Z,21.17
2018-08-11T06:26:01.110Z,22.14
2018-08-11T06:27:01.111Z,20.99
2018-08-11T06:28:00.827Z,20.05
2018-08-11T06:29:00.897Z,19.36
2018-08-11T06:30:00.779Z,18.87
2018-08-11T06:31:00.808Z,18.23
2018-08-11T06:32:00.813Z,17.71
2018-08-11T06:33:00.788Z,17.74
2018-08-11T06:34:00.859Z,17.63
2018-08-11T06:35:00.838Z,19.00
2018-08-11T06:36:00.800Z,19.88
2018-08-11T06:37:00.852Z,19.37
2018-08-11T06:38:00.813Z,20.51
2018-08-11T06:39:00.894Z,21.92
2018-08-11T06:40:00.892Z,21.12
2018-08-11T06:41:00.993Z,22.61
2018-08-11T06:42:00.986Z,22.83
2018-08-11T06:43:00.885Z,22.03
2018-08-11T06:44:00.840Z,22.22
2018-08-11T06:45:00.874Z,21.09
2018-08-11T06:46:00.866Z,20.28
2018-08-11T06:47:00.876Z,19.50
2018-08-11T06:48:00.870Z,19.18
2018-08-11T06:49:00.834Z,19.08
2018-08-11T06:50:00.873Z,18.92
2018-08-11T06:51:00.886Z,19.43
2018-08-11T06:52:00.850Z,19.84
2018-08-11T06:53:00.847Z,19.86
2018-08-11T06:54:00.842Z,20.32
2018-08-11T06:55:00.884Z,21.62
2018-08-11T06:56:00.838Z,22.88
2018-08-11T06:57:00.886Z,23.27
2018-08-11T06:58:00.891Z,23.65
2018-08-11T06:59:00.920Z,24.28
2018-08-11T07:00:00.956Z,25.08
2018-08-11T07:01:00.933Z,25.61
2018-08-11T07:02:00.973Z,24.40
2018-08-11T07:03:00.891Z,24.24
2018-08-11T07:04:00.966Z,24.32
2018-08-11T07:05:01.632Z,24.09
2018-08-11T07:06:00.931Z,24.10
2018-08-11T07:07:00.920Z,22.86
2018-08-11T07:08:00.955Z,24.02
2018-08-11T07:09:00.938Z,24.64
2018-08-11T07:10:00.919Z,24.32
2018-08-11T07:11:00.943Z,23.55
2018-08-11T07:12:00.934Z,22.76
2018-08-11T07:13:00.953Z,22.40
2018-08-11T07:14:00.998Z,21.94
2018-08-11T07:15:00.972Z,21.74
2018-08-11T07:16:00.974Z,21.69
2018-08-11T07:17:00.957Z,20.94
2018-08-11T07:18:01.023Z,21.61
2018-08-11T07:19:00.978Z,21.34
2018-08-11T07:20:01.064Z,22.76
2018-08-11T07:21:01.019Z,24.31
2018-08-11T07:22:01.071Z,24.20
2018-08-11T07:23:01.096Z,22.40
2018-08-11T07:24:01.170Z,23.47
2018-08-11T07:25:01.080Z,24.78
2018-08-11T07:26:01.222Z,24.58
2018-08-11T07:27:01.037Z,24.31
2018-08-11T07:28:01.042Z,24.62
2018-08-11T07:29:01.060Z,24.87
2018-08-11T07:30:01.057Z,25.43
2018-08-11T07:31:01.049Z,25.10
2018-08-11T07:32:01.057Z,25.58
2018-08-11T07:33:01.641Z,25.57
2018-08-11T07:34:01.081Z,25.61
2018-08-11T07:35:01.106Z,25.61
2018-08-11T07:36:01.251Z,25.52
2018-08-11T07:37:01.097Z,26.05
2018-08-11T07:38:01.160Z,26.57
2018-08-11T07:39:01.088Z,25.80
2018-08-11T07:40:01.178Z,25.91
2018-08-11T07:41:01.143Z,25.88
2018-08-11T07:42:01.139Z,26.35
2018-08-11T07:43:01.132Z,26.35
2018-08-11T07:44:01.186Z,25.05
2018-08-11T07:45:01.138Z,25.94
2018-08-11T07:46:01.251Z,25.79
2018-08-11T07:47:01.222Z,25.43
2018-08-11T07:48:01.215Z,25.80
2018-08-11T07:49:01.205Z,26.48
2018-08-11T07:50:01.176Z,27.12
2018-08-11T07:51:01.215Z,26.54
2018-08-11T07:52:01.210Z,26.51
2018-08-11T07:53:01.242Z,26.70
2018-08-11T07:54:01.276Z,27.39
2018-08-11T07:55:01.257Z,27.32
2018-08-11T07:56:01.377Z,27.94
2018-08-11T07:57:01.423Z,27.97
2018-08-11T07:58:01.297Z,28.93
2018-08-11T07:59:01.303Z,28.93
2018-08-11T08:00:01.347Z,28.33
2018-08-11T08:01:01.289Z,27.94
2018-08-11T08:02:01.354Z,27.77
2018-08-11T08:03:01.325Z,26.91
2018-08-11T08:04:01.354Z,27.22
2018-08-11T08:05:01.366Z,27.87
2018-08-11T08:06:01.400Z,27.97
2018-08-11T08:07:01.360Z,27.84
2018-08-11T08:08:01.410Z,28.31
2018-08-11T08:09:01.483Z,28.27
2018-08-11T08:10:01.435Z,26.58
2018-08-11T08:11:01.582Z,27.22
2018-08-11T08:12:01.465Z,27.07
2018-08-11T08:13:01.466Z,26.40
2018-08-11T08:14:01.458Z,25.95
2018-08-11T08:15:01.517Z,25.92
2018-08-11T08:16:01.499Z,25.73
2018-08-11T08:17:01.621Z,26.63
2018-08-11T08:18:01.533Z,25.55
2018-08-11T08:19:01.493Z,24.34
2018-08-11T08:20:01.578Z,25.23
2018-08-11T08:21:01.649Z,24.34
2018-08-11T08:22:01.530Z,23.94
2018-08-11T08:23:01.552Z,23.23
2018-08-11T08:24:01.597Z,23.93
2018-08-11T08:25:01.602Z,24.34
2018-08-11T08:26:01.678Z,24.46
2018-08-11T08:27:01.655Z,23.83
2018-08-11T08:28:01.669Z,23.02
2018-08-11T08:29:01.621Z,23.33
2018-08-11T08:30:01.620Z,23.66
2018-08-11T08:31:01.678Z,22.58
2018-08-11T08:32:01.683Z,22.37
2018-08-11T08:33:01.701Z,23.95
2018-08-11T08:34:01.726Z,24.98
2018-08-11T08:35:01.699Z,25.33
2018-08-11T08:36:01.710Z,24.22
2018-08-11T08:37:01.706Z,24.52
2018-08-11T08:38:01.749Z,25.82
2018-08-11T08:39:01.749Z,25.75
2018-08-11T08:40:01.720Z,25.23
2018-08-11T08:41:01.763Z,25.43
2018-08-11T08:42:01.782Z,25.73
2018-08-11T08:43:01.785Z,24.77
2018-08-11T08:44:01.806Z,24.09
2018-08-11T08:45:01.767Z,23.98
2018-08-11T08:46:01.810Z,24.31
2018-08-11T08:47:01.820Z,24.85
2018-08-11T08:48:01.811Z,24.62
2018-08-11T08:49:01.884Z,23.95
2018-08-11T08:50:01.801Z,23.28
2018-08-11T08:51:01.840Z,23.17
2018-08-11T08:52:01.831Z,22.47
2018-08-11T08:53:01.865Z,21.77
2018-08-11T08:54:01.853Z,21.46
2018-08-11T08:55:01.875Z,21.58
2018-08-11T08:56:01.881Z,22.94
2018-08-11T08:57:01.915Z,24.64
2018-08-11T08:58:01.935Z,25.76
2018-08-11T08:59:01.928Z,26.40
2018-08-11T09:00:01.932Z,27.13
2018-08-11T09:01:01.968Z,27.43
2018-08-11T09:02:01.988Z,28.19
2018-08-11T09:03:01.931Z,28.15
2018-08-11T09:04:01.954Z,28.61
2018-08-11T09:05:01.955Z,26.87
2018-08-11T09:06:02.020Z,26.84
2018-08-11T09:07:02.014Z,27.60
2018-08-11T09:08:02.039Z,27.96
2018-08-11T09:09:02.036Z,27.44
2018-08-11T09:10:02.064Z,27.81
2018-08-11T09:11:02.020Z,27.50
2018-08-11T09:12:02.078Z,25.94
2018-08-11T09:13:02.082Z,24.64
2018-08-11T09:14:02.127Z,25.45
2018-08-11T09:15:02.769Z,25.21
2018-08-11T09:16:02.095Z,26.10
2018-08-11T09:17:02.110Z,26.89
2018-08-11T09:18:02.420Z,26.39
2018-08-11T09:19:02.143Z,26.20
2018-08-11T09:20:02.131Z,25.03
2018-08-11T09:21:02.253Z,25.82
2018-08-11T09:22:02.157Z,26.89
2018-08-11T09:23:02.260Z,27.66
2018-08-11T09:24:02.717Z,27.44
2018-08-11T09:25:02.206Z,26.80
2018-08-11T09:26:02.220Z,25.79
2018-08-11T09:27:02.235Z,27.36
2018-08-11T09:28:02.296Z,28.17
2018-08-11T09:29:02.743Z,29.02
2018-08-11T09:30:02.229Z,29.30
2018-08-11T09:31:02.298Z,29.06
2018-08-11T09:32:02.312Z,28.85
2018-08-11T09:33:02.319Z,28.80
2018-08-11T09:34:02.340Z,28.68
2018-08-11T09:35:02.343Z,28.86
2018-08-11T09:36:02.393Z,29.23
2018-08-11T09:37:02.366Z,27.44
2018-08-11T09:38:02.413Z,26.43
2018-08-11T09:39:02.359Z,26.94
2018-08-11T09:40:02.408Z,27.70
2018-08-11T09:41:02.413Z,28.70
2018-08-11T09:42:02.416Z,29.23
2018-08-11T09:43:02.419Z,29.63
2018-08-11T09:44:02.508Z,29.06
2018-08-11T09:45:02.586Z,28.80
2018-08-11T09:46:02.914Z,29.26
2018-08-11T09:47:02.477Z,29.73
2018-08-11T09:48:02.643Z,29.98
2018-08-11T09:49:02.747Z,29.57
2018-08-11T09:50:02.517Z,29.94
2018-08-11T09:51:02.569Z,30.04
2018-08-11T09:52:02.571Z,30.53
2018-08-11T09:53:02.591Z,30.07
2018-08-11T09:54:02.645Z,29.70
2018-08-11T09:55:02.605Z,29.19
2018-08-11T09:56:02.616Z,28.27
2018-08-11T09:57:02.666Z,29.08
2018-08-11T09:58:02.650Z,27.67
2018-08-11T09:59:02.679Z,27.84
2018-08-11T10:00:02.744Z,28.98
2018-08-11T10:01:02.749Z,29.64
2018-08-11T10:02:02.768Z,28.92
2018-08-11T10:03:02.746Z,28.55
2018-08-11T10:04:02.797Z,27.99
2018-08-11T10:05:02.803Z,28.43
2018-08-11T10:06:02.810Z,28.71
2018-08-11T10:07:02.871Z,29.31
2018-08-11T10:08:02.857Z,29.60
2018-08-11T10:09:02.874Z,29.79
2018-08-11T10:10:02.882Z,29.95
2018-08-11T10:11:02.896Z,29.95
2018-08-11T10:12:02.918Z,30.07
2018-08-11T10:13:02.935Z,29.58
2018-08-11T10:14:02.922Z,28.74
2018-08-11T10:15:02.958Z,28.02
2018-08-11T10:16:02.975Z,28.44
2018-08-11T10:17:02.961Z,28.73
2018-08-11T10:18:02.963Z,28.56
2018-08-11T10:19:03.025Z,27.59
2018-08-11T10:20:03.036Z,26.81
2018-08-11T10:21:03.051Z,25.14
2018-08-11T10:22:03.028Z,24.20
2018-08-11T10:23:03.056Z,24.05
2018-08-11T10:24:03.079Z,24.25
2018-08-11T10:25:03.133Z,25.80
2018-08-11T10:26:03.115Z,26.97
2018-08-11T10:27:03.132Z,27.54
2018-08-11T10:28:03.120Z,27.99
2018-08-11T10:29:03.148Z,28.51
2018-08-11T10:30:03.159Z,29.16
2018-08-11T10:31:03.177Z,29.61
2018-08-11T10:32:03.201Z,28.92
2018-08-11T10:33:03.190Z,27.54
2018-08-11T10:34:03.340Z,28.12
2018-08-11T10:35:03.306Z,27.62
2018-08-11T10:36:03.277Z,25.94
2018-08-11T10:37:03.331Z,25.13
2018-08-11T10:38:03.280Z,26.20
2018-08-11T10:39:03.275Z,27.69
2018-08-11T10:40:03.324Z,27.46
2018-08-11T10:41:03.337Z,27.22
2018-08-11T10:42:03.337Z,27.12
2018-08-11T10:43:03.358Z,26.29
2018-08-11T10:44:03.367Z,25.33
2018-08-11T10:45:03.402Z,24.73
2018-08-11T10:46:03.372Z,24.24
2018-08-11T10:47:03.402Z,24.32
2018-08-11T10:48:03.428Z,24.32
2018-08-11T10:49:03.479Z,24.53
2018-08-11T10:50:03.431Z,25.08
2018-08-11T10:51:03.439Z,25.80
2018-08-11T10:52:03.472Z,25.73
2018-08-11T10:53:03.510Z,25.57
2018-08-11T10:54:03.489Z,25.13
2018-08-11T10:55:03.519Z,24.55
2018-08-11T10:56:03.645Z,24.08
2018-08-11T10:57:03.564Z,23.63
2018-08-11T10:58:03.570Z,23.50
2018-08-11T10:59:03.566Z,23.48
2018-08-11T11:00:03.561Z,23.46
2018-08-11T11:01:03.567Z,23.42
2018-08-11T11:02:03.594Z,23.39
2018-08-11T11:03:03.597Z,23.32
2018-08-11T11:04:03.677Z,23.20
2018-08-11T11:05:03.635Z,22.97
2018-08-11T11:06:03.609Z,22.97
2018-08-11T11:07:03.633Z,22.82
2018-08-11T11:08:03.635Z,22.92
2018-08-11T11:09:03.754Z,23.01
2018-08-11T11:10:03.641Z,23.27
2018-08-11T11:11:03.734Z,23.38
2018-08-11T11:12:03.690Z,23.09
2018-08-11T11:13:03.707Z,23.35
2018-08-11T11:14:03.693Z,23.75
2018-08-11T11:15:03.672Z,23.78
2018-08-11T11:16:03.718Z,23.79
2018-08-11T11:17:03.703Z,24.22
2018-08-11T11:18:03.695Z,24.39
2018-08-11T11:19:03.706Z,24.68
2018-08-11T11:20:03.728Z,24.65
2018-08-11T11:21:03.774Z,24.25
2018-08-11T11:22:03.785Z,24.28
2018-08-11T11:23:03.735Z,24.32
2018-08-11T11:24:03.774Z,24.49
2018-08-11T11:25:03.837Z,24.50
2018-08-11T11:26:03.785Z,24.47
2018-08-11T11:27:03.842Z,24.28
2018-08-11T11:28:03.808Z,24.09
2018-08-11T11:29:03.765Z,24.15
2018-08-11T11:30:03.795Z,24.13
2018-08-11T11:31:03.794Z,24.28
2018-08-11T11:32:03.819Z,24.21
2018-08-11T11:33:03.805Z,24.21
2018-08-11T11:34:03.839Z,23.85
2018-08-11T11:35:03.940Z,23.79
2018-08-11T11:36:03.917Z,23.27
2018-08-11T11:37:03.952Z,23.05
2018-08-11T11:38:03.888Z,23.10
2018-08-11T11:39:03.854Z,23.46
2018-08-11T11:40:03.874Z,23.97
2018-08-11T11:41:03.871Z,24.30
2018-08-11T11:42:03.903Z,24.65
2018-08-11T11:43:03.984Z,24.80
2018-08-11T11:44:03.897Z,24.45
2018-08-11T11:45:04.208Z,24.47
2018-08-11T11:46:03.914Z,24.22
2018-08-11T11:47:04.053Z,23.93
2018-08-11T11:48:03.939Z,23.61
2018-08-11T11:49:04.040Z,23.68
2018-08-11T11:50:03.977Z,24.00
2018-08-11T11:51:03.930Z,23.94
2018-08-11T11:52:04.022Z,23.94
2018-08-11T11:53:03.964Z,24.28
2018-08-11T11:54:03.951Z,25.08
2018-08-11T11:55:03.968Z,25.45
2018-08-11T11:56:03.977Z,25.47
2018-08-11T11:57:03.976Z,25.62
2018-08-11T11:58:04.007Z,25.88
2018-08-11T11:59:03.983Z,25.76
2018-08-11T12:00:04.231Z,26.05
2018-08-11T12:01:03.996Z,26.25
2018-08-11T12:02:04.055Z,26.26
2018-08-11T12:03:04.006Z,26.05
2018-08-11T12:04:04.020Z,25.58
2018-08-11T12:05:04.070Z,25.35
2018-08-11T12:06:04.057Z,25.20
2018-08-11T12:07:04.040Z,25.23
2018-08-11T12:08:04.027Z,25.09
2018-08-11T12:09:04.176Z,25.24
2018-08-11T12:10:04.820Z,25.33
2018-08-11T12:11:04.107Z,25.32
2018-08-11T12:12:04.111Z,25.35
2018-08-11T12:13:04.114Z,25.46
2018-08-11T12:14:04.119Z,25.50
2018-08-11T12:15:04.121Z,25.32
2018-08-11T12:16:04.123Z,25.03
2018-08-11T12:17:04.150Z,25.00
2018-08-11T12:18:04.141Z,25.15
2018-08-11T12:19:04.171Z,24.99
2018-08-11T12:20:04.142Z,25.03
2018-08-11T12:21:04.175Z,25.09
2018-08-11T12:22:04.165Z,25.03
2018-08-11T12:23:04.173Z,25.25
2018-08-11T12:24:04.166Z,25.25
2018-08-11T12:25:04.208Z,25.65
2018-08-11T12:26:04.188Z,25.79
2018-08-11T12:27:04.150Z,25.83
2018-08-11T12:28:04.266Z,25.79
2018-08-11T12:29:04.169Z,25.79
2018-08-11T12:30:04.268Z,25.73
2018-08-11T12:31:04.227Z,25.52
2018-08-11T12:32:04.232Z,25.45
2018-08-11T12:33:04.210Z,25.36
2018-08-11T12:34:04.243Z,25.25
2018-08-11T12:35:04.280Z,24.90
2018-08-11T12:36:04.238Z,24.91
2018-08-11T12:37:04.256Z,24.78
2018-08-11T12:38:04.433Z,25.14
2018-08-11T12:39:04.259Z,25.33
2018-08-11T12:40:04.344Z,25.60
2018-08-11T12:41:04.294Z,25.15
2018-08-11T12:42:04.293Z,25.00
2018-08-11T12:43:04.269Z,25.27
2018-08-11T12:44:04.302Z,25.30
2018-08-11T12:45:04.311Z,24.61
2018-08-11T12:46:04.334Z,24.49
2018-08-11T12:47:04.341Z,24.52
2018-08-11T12:48:04.294Z,24.81
2018-08-11T12:49:04.338Z,25.13
2018-08-11T12:50:04.595Z,25.35
2018-08-11T12:51:04.385Z,25.50
2018-08-11T12:52:04.361Z,25.45
2018-08-11T12:53:04.378Z,25.60
2018-08-11T12:54:04.372Z,25.83
2018-08-11T12:55:04.451Z,25.87
2018-08-11T12:56:04.394Z,25.79
2018-08-11T12:57:04.392Z,25.75
2018-08-11T12:58:04.380Z,25.72
2018-08-11T12:59:04.458Z,25.85
2018-08-11T13:00:04.421Z,25.61
2018-08-11T13:01:04.376Z,25.54
2018-08-11T13:02:04.411Z,25.69
2018-08-11T13:03:04.391Z,25.54
2018-08-11T13:04:04.507Z,25.40
2018-08-11T13:05:04.448Z,25.36
2018-08-11T13:06:04.415Z,25.35
2018-08-11T13:07:04.504Z,25.23
2018-08-11T13:08:04.452Z,25.18
2018-08-11T13:09:04.440Z,25.13
2018-08-11T13:10:04.471Z,25.14
2018-08-11T13:11:04.470Z,25.10
2018-08-11T13:12:04.513Z,25.13
2018-08-11T13:13:04.459Z,25.18